createdAt,value
2018-09-05T00:00:27.258Z,97.09
2018-09-05T00:01:27.248Z,98.24
2018-09-05T00:02:27.160Z,98.44
2018-09-05T00:03:27.114Z,97.47
2018-09-05T00:04:27.069Z,97.47
2018-09-05T00:05:27.019Z,99.59
2018-09-05T00:06:26.997Z,99.99
2018-09-05T00:07:26.932Z,99.99
2018-09-05T00:08:26.892Z,99.98
2018-09-05T00:09:26.836Z,99.98
2018-09-05T00:10:26.789Z,99.99
2018-09-05T00:11:26.767Z,99.99
2018-09-05T00:12:26.697Z,99.99
2018-09-05T00:13:26.654Z,99.99
2018-09-05T00:14:26.604Z,99.99
2018-09-05T00:15:26.555Z,99.99
2018-09-05T00:16:26.535Z,99.99
2018-09-05T00:17:26.465Z,99.99
2018-09-05T00:18:26.418Z,99.99
2018-09-05T00:19:26.378Z,99.99
2018-09-05T00:20:26.322Z,99.99
2018-09-05T00:21:26.302Z,99.99
2018-09-05T00:22:26.235Z,99.99
2018-09-05T00:23:26.184Z,99.99
2018-09-05T00:24:26.138Z,99.99
2018-09-05T00:25:26.093Z,99.99
2018-09-05T00:26:26.091Z,99.99
2018-09-05T00:27:25.999Z,99.99
2018-09-05T00:28:25.951Z,99.99
2018-09-05T00:29:25.910Z,99.99
2018-09-05T00:30:25.864Z,99.99
2018-09-05T00:31:25.815Z,99.99
2018-09-05T00:32:25.790Z,99.99
2018-09-05T00:33:25.728Z,99.99
2018-09-05T00:34:25.677Z,99.99
2018-09-05T00:35:25.632Z,99.99
2018-09-05T00:36:25.584Z,99.99
2018-09-05T00:37:25.564Z,99.99
2018-09-05T00:38:25.538Z,99.99
2018-09-05T00:39:25.450Z,99.99
2018-09-05T00:40:25.399Z,99.99
2018-09-05T00:41:25.349Z,99.99
2018-09-05T00:42:25.325Z,99.99
2018-09-05T00:43:25.261Z,99.99
2018-09-05T00:44:25.222Z,99.99
2018-09-05T00:45:25.162Z,99.99
2018-09-05T00:46:25.110Z,99.99
2018-09-05T00:47:25.108Z,99.99
2018-09-05T00:48:25.020Z,99.99
2018-09-05T00:49:24.971Z,99.99
2018-09-05T00:50:24.925Z,99.99
2018-09-05T00:51:24.892Z,99.99
2018-09-05T00:52:24.859Z,99.99
2018-09-05T00:53:24.790Z,99.99
2018-09-05T00:54:24.753Z,99.99
2018-09-05T00:55:24.693Z,99.99
2018-09-05T00:56:24.646Z,99.99
2018-09-05T00:57:24.623Z,99.99
2018-09-05T00:58:24.551Z,99.99
2018-09-05T00:59:24.514Z,99.99
2018-09-05T01:00:24.463Z,99.99
2018-09-05T01:01:24.417Z,99.99
2018-09-05T01:02:24.400Z,99.99
2018-09-05T01:03:24.328Z,99.99
2018-09-05T01:04:24.276Z,99.99
2018-09-05T01:05:24.230Z,99.99
2018-09-05T01:06:24.181Z,99.99
2018-09-05T01:07:24.158Z,99.99
2018-09-05T01:08:24.107Z,99.99
2018-09-05T01:09:24.040Z,99.99
2018-09-05T01:10:23.993Z,99.99
2018-09-05T01:11:23.951Z,99.99
2018-09-05T01:12:23.927Z,99.99
2018-09-05T01:13:23.853Z,99.99
2018-09-05T01:14:23.812Z,99.99
2018-09-05T01:15:23.765Z,99.99
2018-09-05T01:16:23.712Z,99.99
2018-09-05T01:17:23.693Z,99.99
2018-09-05T01:18:23.622Z,99.99
2018-09-05T01:19:23.578Z,99.99
2018-09-05T01:20:23.533Z,99.99
2018-09-05T01:21:23.480Z,99.99
2018-09-05T01:22:23.459Z,99.99
2018-09-05T01:23:23.384Z,99.73
2018-09-05T01:24:23.383Z,99.99
2018-09-05T01:25:23.294Z,99.99
2018-09-05T01:26:23.246Z,99.99
2018-09-05T01:27:23.232Z,99.99
2018-09-05T01:28:23.155Z,99.99
2018-09-05T01:29:23.120Z,99.99
2018-09-05T01:30:23.062Z,99.99
2018-09-05T01:31:23.015Z,99.99
2018-09-05T01:32:23.004Z,99.99
2018-09-05T01:33:22.922Z,99.99
2018-09-05T01:34:22.878Z,99.99
2018-09-05T01:35:22.829Z,99.99
2018-09-05T01:36:22.784Z,99.99
2018-09-05T01:37:22.760Z,99.99
2018-09-05T01:38:22.689Z,99.99
2018-09-05T01:39:22.643Z,99.99
2018-09-05T01:40:22.595Z,99.99
2018-09-05T01:41:22.554Z,99.26
2018-09-05T01:42:22.538Z,99.99
2018-09-05T01:43:22.461Z,98.96
2018-09-05T01:44:22.431Z,99.16
2018-09-05T01:45:22.361Z,99.99
2018-09-05T01:46:22.329Z,99.99
2018-09-05T01:47:22.294Z,99.54
2018-09-05T01:48:22.224Z,98.96
2018-09-05T01:49:22.181Z,99.26
2018-09-05T01:50:22.128Z,98.87
2018-09-05T01:51:22.085Z,99.26
2018-09-05T01:52:22.067Z,97.62
2018-09-05T01:53:22.019Z,97.42
2018-09-05T01:54:21.950Z,97.71
2018-09-05T01:55:21.894Z,97.62
2018-09-05T01:56:21.855Z,97.52
2018-09-05T01:57:21.799Z,98.00
2018-09-05T01:58:21.778Z,97.04
2018-09-05T01:59:21.710Z,97.33
2018-09-05T02:00:21.661Z,97.52
2018-09-05T02:01:21.618Z,97.04
2018-09-05T02:02:21.570Z,97.14
2018-09-05T02:03:21.550Z,97.42
2018-09-05T02:04:21.482Z,97.14
2018-09-05T02:05:21.427Z,97.71
2018-09-05T02:06:21.381Z,97.04
2018-09-05T02:07:21.337Z,97.52
2018-09-05T02:08:21.330Z,97.04
2018-09-05T02:09:21.239Z,97.42
2018-09-05T02:10:21.211Z,97.33
2018-09-05T02:11:21.154Z,98.87
2018-09-05T02:12:21.104Z,97.33
2018-09-05T02:13:21.080Z,97.24
2018-09-05T02:14:21.012Z,98.68
2018-09-05T02:15:20.965Z,97.42
2018-09-05T02:16:20.912Z,97.71
2018-09-05T02:17:20.867Z,96.75
2018-09-05T02:18:20.842Z,97.24
2018-09-05T02:19:20.771Z,98.77
2018-09-05T02:20:20.729Z,97.33
2018-09-05T02:21:20.681Z,97.42
2018-09-05T02:22:20.630Z,97.52
2018-09-05T02:23:20.612Z,97.52
2018-09-05T02:24:20.541Z,98.10
2018-09-05T02:25:20.489Z,97.33
2018-09-05T02:26:20.446Z,98.00
2018-09-05T02:27:20.397Z,97.33
2018-09-05T02:28:20.376Z,97.81
2018-09-05T02:29:20.308Z,97.91
2018-09-05T02:30:20.260Z,97.52
2018-09-05T02:31:20.221Z,99.06
2018-09-05T02:32:20.170Z,99.73
2018-09-05T02:33:20.148Z,99.93
2018-09-05T02:34:20.079Z,99.99
2018-09-05T02:35:20.022Z,99.64
2018-09-05T02:36:19.987Z,98.19
2018-09-05T02:37:19.930Z,98.49
2018-09-05T02:38:19.909Z,99.99
2018-09-05T02:39:19.837Z,98.58
2018-09-05T02:40:19.818Z,99.99
2018-09-05T02:41:19.749Z,97.28
2018-09-05T02:42:19.697Z,98.14
2018-09-05T02:43:19.675Z,97.47
2018-09-05T02:44:19.607Z,97.47
2018-09-05T02:45:19.575Z,98.72
2018-09-05T02:46:19.509Z,97.19
2018-09-05T02:47:19.463Z,99.68
2018-09-05T02:48:19.442Z,97.47
2018-09-05T02:49:19.370Z,97.28
2018-09-05T02:50:19.323Z,98.34
2018-09-05T02:51:19.276Z,99.11
2018-09-05T02:52:19.233Z,98.72
2018-09-05T02:53:19.207Z,98.44
2018-09-05T02:54:19.133Z,97.28
2018-09-05T02:55:19.091Z,97.09
2018-09-05T02:56:19.041Z,97.28
2018-09-05T02:57:18.996Z,97.47
2018-09-05T02:58:18.971Z,96.80
2018-09-05T02:59:18.901Z,97.57
2018-09-05T03:00:18.853Z,97.67
2018-09-05T03:01:18.817Z,97.28
2018-09-05T03:02:18.761Z,97.09
2018-09-05T03:03:18.763Z,97.28
2018-09-05T03:04:18.678Z,97.38
2018-09-05T03:05:18.628Z,97.47
2018-09-05T03:06:18.571Z,97.38
2018-09-05T03:07:18.541Z,97.76
2018-09-05T03:08:18.550Z,96.99
2018-09-05T03:09:18.479Z,97.28
2018-09-05T03:10:18.404Z,97.28
2018-09-05T03:11:18.352Z,96.61
2018-09-05T03:12:18.292Z,96.90
2018-09-05T03:13:18.270Z,97.67
2018-09-05T03:14:18.210Z,97.28
2018-09-05T03:15:18.163Z,96.80
2018-09-05T03:16:18.102Z,96.70
2018-09-05T03:17:18.055Z,96.99
2018-09-05T03:18:18.033Z,96.13
2018-09-05T03:19:17.961Z,96.22
2018-09-05T03:20:17.916Z,96.32
2018-09-05T03:21:17.870Z,96.51
2018-09-05T03:22:17.843Z,96.70
2018-09-05T03:23:17.814Z,96.90
2018-09-05T03:24:17.749Z,96.22
2018-09-05T03:25:17.677Z,96.61
2018-09-05T03:26:17.634Z,96.90
2018-09-05T03:27:17.586Z,96.80
2018-09-05T03:28:17.537Z,96.90
2018-09-05T03:29:17.522Z,97.19
2018-09-05T03:30:17.448Z,98.44
2018-09-05T03:31:17.399Z,99.11
2018-09-05T03:32:17.384Z,97.28
2018-09-05T03:33:17.303Z,97.28
2018-09-05T03:34:17.286Z,97.24
2018-09-05T03:35:17.219Z,97.24
2018-09-05T03:36:17.164Z,97.42
2018-09-05T03:37:17.117Z,96.56
2018-09-05T03:38:17.069Z,96.56
2018-09-05T03:39:17.046Z,96.75
2018-09-05T03:40:16.975Z,96.85
2018-09-05T03:41:16.925Z,96.37
2018-09-05T03:42:16.878Z,97.04
2018-09-05T03:43:16.833Z,96.94
2018-09-05T03:44:16.810Z,96.85
2018-09-05T03:45:16.737Z,97.24
2018-09-05T03:46:16.695Z,96.85
2018-09-05T03:47:16.644Z,97.33
2018-09-05T03:48:16.598Z,97.42
2018-09-05T03:49:16.571Z,97.04
2018-09-05T03:50:16.503Z,97.52
2018-09-05T03:51:16.461Z,97.62
2018-09-05T03:52:16.408Z,96.75
2018-09-05T03:53:16.363Z,96.56
2018-09-05T03:54:16.338Z,97.62
2018-09-05T03:55:16.268Z,96.56
2018-09-05T03:56:16.232Z,96.66
2018-09-05T03:57:16.173Z,97.52
2018-09-05T03:58:16.132Z,97.42
2018-09-05T03:59:16.104Z,98.39
2018-09-05T04:00:16.036Z,98.29
2018-09-05T04:01:15.998Z,97.14
2018-09-05T04:02:15.942Z,97.33
2018-09-05T04:03:15.898Z,96.85
2018-09-05T04:04:15.869Z,97.24
2018-09-05T04:05:15.805Z,97.24
2018-09-05T04:06:15.753Z,97.14
2018-09-05T04:07:15.710Z,98.58
2018-09-05T04:08:15.659Z,99.25
2018-09-05T04:09:15.633Z,99.92
2018-09-05T04:10:15.566Z,99.54
2018-09-05T04:11:15.516Z,97.91
2018-09-05T04:12:15.530Z,97.62
2018-09-05T04:13:15.424Z,98.68
2018-09-05T04:14:15.399Z,97.14
2018-09-05T04:15:15.335Z,96.85
2018-09-05T04:16:15.279Z,97.04
2018-09-05T04:17:15.231Z,98.68
2018-09-05T04:18:15.183Z,99.99
2018-09-05T04:19:15.160Z,99.99
2018-09-05T04:20:15.099Z,99.99
2018-09-05T04:21:15.046Z,99.99
2018-09-05T04:22:15.001Z,99.99
2018-09-05T04:23:14.951Z,99.99
2018-09-05T04:24:14.928Z,99.99
2018-09-05T04:25:14.861Z,99.99
2018-09-05T04:26:14.833Z,99.99
2018-09-05T04:27:14.763Z,99.99
2018-09-05T04:28:14.711Z,99.99
2018-09-05T04:29:14.718Z,99.99
2018-09-05T04:30:14.623Z,99.99
2018-09-05T04:31:14.574Z,99.99
2018-09-05T04:32:14.533Z,99.99
2018-09-05T04:33:14.479Z,99.99
2018-09-05T04:34:14.452Z,99.99
2018-09-05T04:35:14.396Z,99.99
2018-09-05T04:36:14.337Z,99.99
2018-09-05T04:37:14.296Z,99.99
2018-09-05T04:38:14.243Z,99.99
2018-09-05T04:39:14.240Z,99.99
2018-09-05T04:40:14.148Z,99.99
2018-09-05T04:41:14.101Z,99.99
2018-09-05T04:42:14.053Z,99.99
2018-09-05T04:43:14.006Z,99.99
2018-09-05T04:44:13.959Z,99.99
2018-09-05T04:45:14.024Z,99.99
2018-09-05T04:46:13.865Z,99.99
2018-09-05T04:47:13.820Z,99.99
2018-09-05T04:48:13.766Z,99.99
2018-09-05T04:49:13.731Z,99.99
2018-09-05T04:50:13.698Z,99.99
2018-09-05T04:51:13.644Z,99.99
2018-09-05T04:52:13.581Z,99.99
2018-09-05T04:53:13.536Z,99.99
2018-09-05T04:54:13.486Z,99.99
2018-09-05T04:55:13.465Z,99.99
2018-09-05T04:56:13.396Z,99.99
2018-09-05T04:57:13.343Z,99.99
2018-09-05T04:58:13.296Z,99.99
2018-09-05T04:59:13.253Z,99.99
2018-09-05T05:00:13.230Z,99.99
2018-09-05T05:01:13.156Z,99.99
2018-09-05T05:02:13.107Z,99.99
2018-09-05T05:03:13.057Z,99.99
2018-09-05T05:04:13.016Z,99.99
2018-09-05T05:05:12.988Z,99.99
2018-09-05T05:06:12.921Z,99.99
2018-09-05T05:07:12.875Z,99.99
2018-09-05T05:08:12.826Z,99.99
2018-09-05T05:09:12.776Z,99.99
2018-09-05T05:10:12.753Z,99.99
2018-09-05T05:11:12.686Z,99.99
2018-09-05T05:12:12.634Z,99.99
2018-09-05T05:13:12.584Z,99.99
2018-09-05T05:14:12.543Z,99.99
2018-09-05T05:15:12.519Z,99.99
2018-09-05T05:16:12.457Z,99.99
2018-09-05T05:17:12.396Z,99.99
2018-09-05T05:18:12.365Z,99.99
2018-09-05T05:19:12.303Z,99.99
2018-09-05T05:20:12.279Z,99.99
2018-09-05T05:21:12.211Z,99.99
2018-09-05T05:22:12.165Z,99.99
2018-09-05T05:23:12.113Z,99.99
2018-09-05T05:24:12.064Z,99.99
2018-09-05T05:25:12.037Z,99.99
2018-09-05T05:26:11.970Z,99.99
2018-09-05T05:27:11.923Z,99.99
2018-09-05T05:28:11.878Z,99.99
2018-09-05T05:29:11.829Z,99.99
2018-09-05T05:30:11.804Z,99.99
2018-09-05T05:31:11.736Z,99.99
2018-09-05T05:32:11.687Z,99.99
2018-09-05T05:33:11.639Z,99.99
2018-09-05T05:34:11.586Z,99.99
2018-09-05T05:35:11.570Z,99.99
2018-09-05T05:36:11.497Z,99.99
2018-09-05T05:37:11.448Z,99.99
2018-09-05T05:38:11.405Z,99.99
2018-09-05T05:39:11.353Z,99.99
2018-09-05T05:40:11.347Z,99.99
2018-09-05T05:41:11.256Z,99.99
2018-09-05T05:42:11.211Z,99.99
2018-09-05T05:43:11.161Z,99.99
2018-09-05T05:44:11.114Z,99.99
2018-09-05T05:45:11.088Z,99.99
2018-09-05T05:46:11.018Z,99.99
2018-09-05T05:47:10.972Z,99.99
2018-09-05T05:48:10.927Z,99.99
2018-09-05T05:49:10.874Z,99.99
2018-09-05T05:50:10.873Z,99.99
2018-09-05T05:51:10.781Z,99.99
2018-09-05T05:52:10.736Z,99.99
2018-09-05T05:53:10.682Z,99.99
2018-09-05T05:54:10.639Z,99.99
2018-09-05T05:55:10.616Z,99.99
2018-09-05T05:56:10.569Z,99.99
2018-09-05T05:57:10.496Z,99.99
2018-09-05T05:58:10.452Z,99.99
2018-09-05T05:59:10.406Z,99.99
2018-09-05T06:00:10.352Z,99.99
2018-09-05T06:01:10.407Z,99.99
2018-09-05T06:02:10.259Z,99.99
2018-09-05T06:03:10.213Z,99.99
2018-09-05T06:04:10.162Z,99.99
2018-09-05T06:05:10.116Z,99.99
2018-09-05T06:06:10.189Z,99.99
2018-09-05T06:07:10.018Z,99.99
2018-09-05T06:08:09.974Z,99.99
2018-09-05T06:09:09.925Z,99.99
2018-09-05T06:10:09.878Z,99.99
2018-09-05T06:11:09.861Z,99.99
2018-09-05T06:12:09.800Z,99.99
2018-09-05T06:13:09.737Z,99.99
2018-09-05T06:14:09.696Z,99.99
2018-09-05T06:15:09.648Z,99.99
2018-09-05T06:16:09.622Z,99.99
2018-09-05T06:17:09.548Z,99.99
2018-09-05T06:18:09.509Z,99.99
2018-09-05T06:19:09.451Z,99.99
2018-09-05T06:20:09.404Z,99.99
2018-09-05T06:21:09.457Z,99.99
2018-09-05T06:22:09.308Z,99.99
2018-09-05T06:23:09.265Z,99.99
2018-09-05T06:24:09.233Z,99.99
2018-09-05T06:25:09.167Z,99.99
2018-09-05T06:26:09.163Z,99.99
2018-09-05T06:27:09.077Z,99.99
2018-09-05T06:28:09.031Z,99.99
2018-09-05T06:29:08.980Z,99.59
2018-09-05T06:30:08.937Z,97.67
2018-09-05T06:31:09.025Z,97.24
2018-09-05T06:32:08.853Z,96.56
2018-09-05T06:33:08.794Z,97.33
2018-09-05T06:34:08.753Z,97.42
2018-09-05T06:35:08.704Z,94.25
2018-09-05T06:36:08.679Z,93.43
2018-09-05T06:37:08.613Z,93.43
2018-09-05T06:38:08.567Z,93.04
2018-09-05T06:39:08.583Z,94.06
2018-09-05T06:40:08.489Z,91.45
2018-09-05T06:41:08.455Z,89.53
2018-09-05T06:42:08.379Z,89.81
2018-09-05T06:43:08.329Z,90.10
2018-09-05T06:44:08.295Z,88.56
2018-09-05T06:45:08.336Z,89.23
2018-09-05T06:46:08.221Z,89.37
2018-09-05T06:47:08.144Z,89.86
2018-09-05T06:48:08.099Z,88.99
2018-09-05T06:49:08.065Z,87.64
2018-09-05T06:50:08.025Z,86.19
2018-09-05T06:51:08.001Z,86.87
2018-09-05T06:52:07.936Z,86.19
2018-09-05T06:53:07.873Z,87.35
2018-09-05T06:54:07.835Z,86.39
2018-09-05T06:55:07.782Z,85.13
2018-09-05T06:56:07.761Z,85.85
2018-09-05T06:57:07.686Z,86.33
2018-09-05T06:58:07.693Z,84.31
2018-09-05T06:59:07.621Z,83.53
2018-09-05T07:00:07.556Z,83.63
2018-09-05T07:01:07.509Z,83.53
2018-09-05T07:02:07.488Z,83.53
2018-09-05T07:03:07.414Z,82.86
2018-09-05T07:04:07.375Z,82.86
2018-09-05T07:05:07.326Z,83.09
2018-09-05T07:06:07.281Z,83.25
2018-09-05T07:07:07.370Z,83.19
2018-09-05T07:08:07.195Z,82.90
2018-09-05T07:09:07.146Z,82.71
2018-09-05T07:10:07.160Z,82.81
2018-09-05T07:11:07.055Z,82.42
2018-09-05T07:12:07.031Z,82.32
2018-09-05T07:13:06.963Z,82.23
2018-09-05T07:14:06.965Z,82.46
2018-09-05T07:15:06.875Z,81.30
2018-09-05T07:16:06.834Z,81.49
2018-09-05T07:17:06.809Z,82.65
2018-09-05T07:18:06.737Z,82.17
2018-09-05T07:19:06.692Z,80.62
2018-09-05T07:20:06.651Z,80.43
2018-09-05T07:21:06.607Z,79.17
2018-09-05T07:22:06.600Z,78.50
2018-09-05T07:23:06.516Z,79.08
2018-09-05T07:24:06.478Z,79.47
2018-09-05T07:25:06.576Z,78.41
2018-09-05T07:26:06.384Z,78.69
2018-09-05T07:27:06.364Z,78.59
2018-09-05T07:28:06.304Z,78.50
2018-09-05T07:29:06.253Z,79.95
2018-09-05T07:30:06.202Z,78.79
2018-09-05T07:31:06.157Z,78.41
2018-09-05T07:32:06.135Z,78.59
2018-09-05T07:33:06.071Z,78.59
2018-09-05T07:34:06.025Z,78.11
2018-09-05T07:35:05.979Z,79.37
2018-09-05T07:36:05.933Z,79.95
2018-09-05T07:37:05.912Z,79.08
2018-09-05T07:38:05.844Z,79.27
2018-09-05T07:39:05.797Z,78.89
2018-09-05T07:40:05.752Z,79.37
2018-09-05T07:41:05.708Z,79.47
2018-09-05T07:42:05.689Z,78.41
2018-09-05T07:43:05.622Z,77.92
2018-09-05T07:44:05.576Z,78.21
2018-09-05T07:45:05.529Z,78.11
2018-09-05T07:46:05.486Z,77.63
2018-09-05T07:47:05.463Z,77.67
2018-09-05T07:48:05.395Z,77.67
2018-09-05T07:49:05.355Z,77.86
2018-09-05T07:50:05.309Z,78.02
2018-09-05T07:51:05.310Z,78.41
2018-09-05T07:52:05.281Z,78.02
2018-09-05T07:53:05.176Z,78.50
2018-09-05T07:54:05.127Z,78.41
2018-09-05T07:55:05.101Z,80.14
2018-09-05T07:56:05.043Z,80.33
2018-09-05T07:57:05.020Z,80.14
2018-09-05T07:58:04.950Z,79.56
2018-09-05T07:59:04.906Z,79.85
2018-09-05T08:00:04.861Z,79.17
2018-09-05T08:01:04.817Z,79.27
2018-09-05T08:02:04.794Z,79.47
2018-09-05T08:03:04.844Z,79.17
2018-09-05T08:04:04.682Z,80.72
2018-09-05T08:05:04.634Z,79.85
2018-09-05T08:06:04.596Z,79.85
2018-09-05T08:07:04.575Z,79.66
2018-09-05T08:08:04.508Z,80.43
2018-09-05T08:09:04.457Z,80.62
2018-09-05T08:10:04.415Z,80.33
2018-09-05T08:11:04.370Z,81.11
2018-09-05T08:12:04.351Z,80.91
2018-09-05T08:13:04.280Z,81.30
2018-09-05T08:14:04.234Z,80.43
2018-09-05T08:15:04.194Z,80.53
2018-09-05T08:16:04.145Z,80.91
2018-09-05T08:17:04.138Z,81.20
2018-09-05T08:18:04.108Z,80.33
2018-09-05T08:19:04.016Z,80.91
2018-09-05T08:20:03.969Z,81.30
2018-09-05T08:21:03.921Z,79.17
2018-09-05T08:22:03.880Z,79.27
2018-09-05T08:23:03.864Z,80.05
2018-09-05T08:24:03.840Z,80.00
2018-09-05T08:25:03.743Z,80.53
2018-09-05T08:26:03.706Z,79.85
2018-09-05T08:27:03.657Z,80.05
2018-09-05T08:28:03.632Z,79.95
2018-09-05T08:29:03.575Z,79.66
2018-09-05T08:30:03.587Z,80.24
2018-09-05T08:31:03.483Z,80.91
2018-09-05T08:32:03.433Z,80.53
2018-09-05T08:33:03.410Z,79.22
2018-09-05T08:34:03.347Z,79.31
2018-09-05T08:35:03.426Z,78.34
2018-09-05T08:36:03.687Z,78.44
2018-09-05T08:37:03.371Z,78.25
2018-09-05T08:38:03.286Z,78.44
2018-09-05T08:39:03.239Z,78.64
2018-09-05T08:40:03.081Z,78.73
2018-09-05T08:41:03.085Z,78.06
2018-09-05T08:42:03.096Z,77.48
2018-09-05T08:43:02.967Z,76.70
2018-09-05T08:44:02.967Z,78.15
2018-09-05T08:45:03.001Z,78.06
2018-09-05T08:46:03.019Z,77.57
2018-09-05T08:47:02.855Z,77.76
2018-09-05T08:48:02.800Z,76.74
2018-09-05T08:49:02.678Z,77.42
2018-09-05T08:50:02.642Z,76.26
2018-09-05T08:51:02.591Z,76.55
2018-09-05T08:52:02.566Z,75.10
2018-09-05T08:53:02.522Z,75.39
2018-09-05T08:54:02.454Z,76.26
2018-09-05T08:55:02.429Z,76.45
2018-09-05T08:56:02.366Z,76.35
2018-09-05T08:57:02.326Z,76.45
2018-09-05T08:58:02.297Z,76.35
2018-09-05T08:59:02.242Z,76.06
2018-09-05T09:00:02.189Z,76.35
2018-09-05T09:01:02.147Z,75.48
2018-09-05T09:02:02.099Z,75.20
2018-09-05T09:03:02.147Z,75.20
2018-09-05T09:04:02.010Z,75.48
2018-09-05T09:05:02.039Z,76.35
2018-09-05T09:06:01.928Z,76.26
2018-09-05T09:07:01.881Z,76.35
2018-09-05T09:08:01.865Z,75.78
2018-09-05T09:09:01.788Z,75.78
2018-09-05T09:10:01.750Z,75.43
2018-09-05T09:11:01.710Z,74.75
2018-09-05T09:12:01.676Z,74.75
2018-09-05T09:13:01.641Z,74.27
2018-09-05T09:14:01.580Z,73.49
2018-09-05T09:15:01.527Z,73.20
2018-09-05T09:16:01.478Z,73.88
2018-09-05T09:17:01.452Z,73.20
2018-09-05T09:18:01.416Z,73.59
2018-09-05T09:19:01.349Z,73.88
2018-09-05T09:20:01.306Z,74.07
2018-09-05T09:21:01.262Z,75.23
2018-09-05T09:22:01.219Z,74.49
2018-09-05T09:23:01.219Z,74.11
2018-09-05T09:24:01.132Z,73.33
2018-09-05T09:25:01.096Z,73.14
2018-09-05T09:26:01.058Z,73.43
2018-09-05T09:27:00.999Z,73.24
2018-09-05T09:28:00.964Z,72.56
2018-09-05T09:29:00.935Z,72.17
2018-09-05T09:30:00.868Z,72.56
2018-09-05T09:31:00.826Z,72.56
2018-09-05T09:32:00.785Z,71.69
2018-09-05T09:33:00.743Z,71.98
2018-09-05T09:34:00.717Z,71.20
2018-09-05T09:35:00.653Z,72.36
2018-09-05T09:36:00.601Z,73.14
2018-09-05T09:37:00.561Z,72.95
2018-09-05T09:38:00.515Z,73.08
2018-09-05T09:39:00.500Z,72.50
2018-09-05T09:40:00.441Z,72.40
2018-09-05T09:41:00.386Z,72.11
2018-09-05T09:42:00.347Z,71.34
2018-09-05T09:43:00.298Z,70.40
2018-09-05T09:44:00.279Z,69.98
2018-09-05T09:45:00.215Z,70.56
2018-09-05T09:46:00.170Z,70.27
2018-09-05T09:47:00.133Z,70.50
2018-09-05T09:48:00.081Z,70.31
2018-09-05T09:49:00.072Z,70.31
2018-09-05T09:50:00.011Z,70.40
2018-09-05T09:51:00.105Z,68.95
2018-09-05T09:51:59.909Z,68.56
2018-09-05T09:52:59.863Z,68.66
2018-09-05T09:53:59.842Z,68.85
2018-09-05T09:54:59.776Z,68.18
2018-09-05T09:55:59.737Z,68.85
2018-09-05T09:56:59.688Z,69.34
2018-09-05T09:57:59.659Z,69.92
2018-09-05T09:58:59.627Z,69.82
2018-09-05T09:59:59.563Z,69.43
2018-09-05T10:00:59.517Z,69.73
2018-09-05T10:01:59.477Z,69.63
2018-09-05T10:02:59.437Z,69.92
2018-09-05T10:03:59.437Z,69.82
2018-09-05T10:04:59.367Z,70.08
2018-09-05T10:05:59.301Z,69.98
2018-09-05T10:06:59.276Z,69.92
2018-09-05T10:07:59.214Z,70.31
2018-09-05T10:08:59.205Z,68.56
2018-09-05T10:09:59.307Z,69.05
2018-09-05T10:10:59.083Z,68.66
2018-09-05T10:11:59.043Z,69.34
2018-09-05T10:12:58.996Z,68.95
2018-09-05T10:13:58.979Z,67.79
2018-09-05T10:14:58.947Z,69.15
2018-09-05T10:15:58.871Z,68.85
2018-09-05T10:16:58.886Z,68.66
2018-09-05T10:17:58.784Z,68.95
2018-09-05T10:18:58.762Z,69.05
2018-09-05T10:19:58.694Z,68.85
2018-09-05T10:20:58.669Z,68.66
2018-09-05T10:21:58.615Z,68.91
2018-09-05T10:22:58.570Z,69.92
2018-09-05T10:23:58.548Z,69.73
2018-09-05T10:24:58.480Z,70.01
2018-09-05T10:25:58.440Z,69.43
2018-09-05T10:26:58.393Z,69.05
2018-09-05T10:27:58.348Z,68.27
2018-09-05T10:28:58.331Z,67.88
2018-09-05T10:29:58.262Z,68.76
2018-09-05T10:30:58.218Z,69.08
2018-09-05T10:31:58.185Z,68.79
2018-09-05T10:32:58.130Z,68.89
2018-09-05T10:33:58.137Z,69.18
2018-09-05T10:34:58.056Z,68.60
2018-09-05T10:35:58.006Z,69.08
2018-09-05T10:36:57.959Z,68.60
2018-09-05T10:37:57.921Z,67.34
2018-09-05T10:38:57.873Z,67.05
2018-09-05T10:39:57.860Z,66.75
2018-09-05T10:40:57.792Z,67.63
2018-09-05T10:41:57.748Z,67.14
2018-09-05T10:42:57.706Z,68.21
2018-09-05T10:43:57.656Z,68.21
2018-09-05T10:44:57.637Z,67.34
2018-09-05T10:45:57.572Z,67.57
2018-09-05T10:46:57.527Z,66.56
2018-09-05T10:47:57.485Z,66.69
2018-09-05T10:48:57.441Z,67.47
2018-09-05T10:49:57.433Z,66.60
2018-09-05T10:50:57.361Z,66.02
2018-09-05T10:51:57.315Z,66.50
2018-09-05T10:52:57.275Z,65.63
2018-09-05T10:53:57.227Z,65.43
2018-09-05T10:54:57.205Z,64.95
2018-09-05T10:55:57.143Z,64.85
2018-09-05T10:56:57.101Z,64.37
2018-09-05T10:57:57.058Z,64.95
2018-09-05T10:58:57.026Z,65.43
2018-09-05T10:59:56.993Z,65.43
2018-09-05T11:00:56.924Z,64.65
2018-09-05T11:01:56.881Z,64.47
2018-09-05T11:02:56.840Z,64.47
2018-09-05T11:03:56.797Z,63.49
2018-09-05T11:04:56.779Z,64.85
2018-09-05T11:05:56.716Z,64.75
2018-09-05T11:06:56.670Z,65.43
2018-09-05T11:07:56.630Z,64.75
2018-09-05T11:08:56.584Z,64.85
2018-09-05T11:09:56.593Z,64.85
2018-09-05T11:10:56.541Z,63.30
2018-09-05T11:11:56.455Z,62.91
2018-09-05T11:12:56.413Z,62.52
2018-09-05T11:13:56.373Z,63.49
2018-09-05T11:14:56.353Z,61.65
2018-09-05T11:15:56.286Z,61.85
2018-09-05T11:16:56.241Z,61.65
2018-09-05T11:17:56.199Z,61.94
2018-09-05T11:18:56.154Z,61.65
2018-09-05T11:19:56.197Z,61.85
2018-09-05T11:20:56.069Z,62.62
2018-09-05T11:21:56.025Z,62.52
2018-09-05T11:22:55.981Z,62.62
2018-09-05T11:23:55.944Z,62.88
2018-09-05T11:24:55.895Z,63.59
2018-09-05T11:25:55.879Z,62.69
2018-09-05T11:26:55.812Z,62.49
2018-09-05T11:27:55.767Z,63.27
2018-09-05T11:28:55.752Z,64.62
2018-09-05T11:29:55.679Z,63.78
2018-09-05T11:30:55.662Z,63.27
2018-09-05T11:31:55.593Z,64.92
2018-09-05T11:32:55.550Z,64.72
2018-09-05T11:33:55.505Z,64.72
2018-09-05T11:34:55.461Z,66.85
2018-09-05T11:35:55.448Z,66.11
2018-09-05T11:36:55.420Z,64.95
2018-09-05T11:37:55.332Z,62.23
2018-09-05T11:38:55.294Z,62.33
2018-09-05T11:39:55.253Z,60.97
2018-09-05T11:40:55.226Z,61.17
2018-09-05T11:41:55.165Z,60.97
2018-09-05T11:42:55.120Z,61.36
2018-09-05T11:43:55.079Z,61.46
2018-09-05T11:44:55.040Z,62.13
2018-09-05T11:45:55.030Z,62.72
2018-09-05T11:46:54.948Z,61.88
2018-09-05T11:47:54.905Z,61.98
2018-09-05T11:48:54.861Z,62.36
2018-09-05T11:49:54.819Z,61.26
2018-09-05T11:50:54.832Z,61.68
2018-09-05T11:51:54.731Z,61.39
2018-09-05T11:52:54.689Z,63.59
2018-09-05T11:53:54.646Z,63.20
2018-09-05T11:54:54.643Z,61.36
2018-09-05T11:55:54.604Z,60.78
2018-09-05T11:56:54.515Z,61.29
2018-09-05T11:57:54.471Z,62.82
2018-09-05T11:58:54.430Z,63.40
2018-09-05T11:59:54.383Z,63.49
2018-09-05T12:00:54.341Z,63.69
2018-09-05T12:02:15.336Z,63.10
2018-09-05T12:02:54.258Z,62.52
2018-09-05T12:03:54.220Z,61.26
2018-09-05T12:04:54.221Z,61.85
2018-09-05T12:05:54.127Z,61.68
2018-09-05T12:06:54.118Z,60.61
2018-09-05T12:07:54.039Z,61.00
2018-09-05T12:08:54.006Z,60.52
2018-09-05T12:09:53.957Z,60.13
2018-09-05T12:10:53.915Z,60.52
2018-09-05T12:11:53.892Z,60.23
2018-09-05T12:12:53.829Z,60.23
2018-09-05T12:13:53.782Z,58.77
2018-09-05T12:14:53.744Z,58.00
2018-09-05T12:15:53.708Z,59.16
2018-09-05T12:16:53.676Z,60.61
2018-09-05T12:17:53.608Z,60.52
2018-09-05T12:18:53.570Z,60.32
2018-09-05T12:19:53.525Z,60.52
2018-09-05T12:20:53.483Z,60.58
2018-09-05T12:21:53.459Z,60.42
2018-09-05T12:22:53.401Z,61.39
2018-09-05T12:23:53.356Z,60.71
2018-09-05T12:24:53.313Z,60.52
2018-09-05T12:25:53.274Z,60.81
2018-09-05T12:26:53.247Z,60.52
2018-09-05T12:27:53.180Z,60.61
2018-09-05T12:28:53.138Z,62.36
2018-09-05T12:29:53.092Z,62.82
2018-09-05T12:30:53.053Z,61.10
2018-09-05T12:31:53.037Z,60.68
2018-09-05T12:32:52.965Z,60.91
2018-09-05T12:33:52.925Z,60.52
2018-09-05T12:34:52.882Z,60.71
2018-09-05T12:35:52.843Z,61.00
2018-09-05T12:36:52.822Z,61.00
2018-09-05T12:37:52.753Z,60.13
2018-09-05T12:38:52.708Z,59.45
2018-09-05T12:39:52.708Z,59.36
2018-09-05T12:40:52.622Z,60.23
2018-09-05T12:41:52.602Z,61.88
2018-09-05T12:42:52.536Z,61.19
2018-09-05T12:43:52.498Z,63.23
2018-09-05T12:44:52.458Z,61.10
2018-09-05T12:45:52.403Z,61.07
2018-09-05T12:46:52.389Z,62.95
2018-09-05T12:47:52.320Z,61.00
2018-09-05T12:48:53.003Z,59.94
2018-09-05T12:49:52.236Z,60.78
2018-09-05T12:50:52.189Z,60.03
2018-09-05T12:51:52.181Z,60.13